Falling Spring, Virginia
Current Conditions -  °F | °C
As of 6:15 AM on Sunday 21 Dec 2014 (Local Time) from KHSP Reporting Station
Overcast Overcast  
Wind Chill: 21°   Ceiling: 1600
Heat Index: 29°   Visibility: 10mi
Dew Point: 29°   Wind: 8mph
Humidity: 100%   Direction: 280°W
Pressure: 30.12"   Gusts: NA
Location:  37.9738°N, 79.8988°W
Report Text: KHSP 211115Z AUTO 28007KT 10SM SCT001 OVC016 M02/M02 A3012 RMK AO2 T10161016
Loading
Personal Weather Stations






























Interactive Weather Map New forecast layout! Learn more

10-Day Weather Forecast

Advertisements
Track Severe Weather on mobile